createdAt,value
2024-02-20T00:00:01.677Z,51.03
2024-02-20T00:01:01.834Z,50.97
2024-02-20T00:02:01.896Z,51.77
2024-02-20T00:03:01.864Z,51.62
2024-02-20T00:04:01.928Z,50.95
2024-02-20T00:05:02.000Z,51.57
2024-02-20T00:06:02.059Z,52.25
2024-02-20T00:07:02.124Z,51.40
2024-02-20T00:08:02.142Z,52.39
2024-02-20T00:09:02.241Z,52.32
2024-02-20T00:10:02.314Z,50.67
2024-02-20T00:11:02.307Z,51.96
2024-02-20T00:12:02.333Z,52.43
2024-02-20T00:13:02.362Z,51.88
2024-02-20T00:14:02.337Z,51.52
2024-02-20T00:15:02.369Z,51.02
2024-02-20T00:16:02.401Z,51.45
2024-02-20T00:17:02.373Z,52.66
2024-02-20T00:18:02.541Z,51.28
2024-02-20T00:19:02.530Z,51.02
2024-02-20T00:20:02.494Z,50.22
2024-02-20T00:21:02.388Z,51.52
2024-02-20T00:22:02.448Z,51.77
2024-02-20T00:23:02.400Z,50.56
2024-02-20T00:24:02.421Z,51.54
2024-02-20T00:25:02.590Z,51.61
2024-02-20T00:26:02.502Z,51.85
2024-02-20T00:27:02.533Z,50.84
2024-02-20T00:28:02.598Z,51.59
2024-02-20T00:29:02.589Z,51.71
2024-02-20T00:30:02.629Z,51.06
2024-02-20T00:31:02.730Z,50.98
2024-02-20T00:32:02.670Z,51.45
2024-02-20T00:33:02.728Z,52.52
2024-02-20T00:34:02.978Z,51.43
2024-02-20T00:35:02.979Z,52.05
2024-02-20T00:36:02.868Z,51.87
2024-02-20T00:37:02.927Z,51.67
2024-02-20T00:38:02.971Z,51.76
2024-02-20T00:39:03.006Z,52.57
2024-02-20T00:40:03.104Z,51.22
2024-02-20T00:41:03.037Z,51.70
2024-02-20T00:42:03.044Z,50.85
2024-02-20T00:43:03.052Z,51.32
2024-02-20T00:44:03.059Z,50.81
2024-02-20T00:45:03.114Z,50.09
2024-02-20T00:46:03.119Z,50.77
2024-02-20T00:47:03.148Z,52.36
2024-02-20T00:48:03.362Z,50.95
2024-02-20T00:49:03.338Z,50.99
2024-02-20T00:50:03.320Z,50.21
2024-02-20T00:51:03.339Z,51.82
2024-02-20T00:52:03.407Z,51.24
2024-02-20T00:53:03.429Z,51.26
2024-02-20T00:54:03.471Z,51.95
2024-02-20T00:55:03.584Z,50.41
2024-02-20T00:56:03.550Z,51.29
2024-02-20T00:57:03.568Z,51.96
2024-02-20T00:58:03.607Z,50.85
2024-02-20T00:59:03.615Z,50.85
2024-02-20T01:00:03.631Z,51.73
2024-02-20T01:01:03.783Z,53.18
2024-02-20T01:02:03.800Z,51.30
2024-02-20T01:03:03.716Z,52.15
2024-02-20T01:04:03.797Z,51.50
2024-02-20T01:05:03.894Z,52.68
2024-02-20T01:06:03.778Z,52.05
2024-02-20T01:07:03.782Z,51.88
2024-02-20T01:08:03.798Z,51.22
2024-02-20T01:09:03.840Z,52.08
2024-02-20T01:10:03.939Z,51.56
2024-02-20T01:11:03.897Z,51.24
2024-02-20T01:12:04.014Z,50.89
2024-02-20T01:13:03.916Z,51.50
2024-02-20T01:14:03.947Z,51.68
2024-02-20T01:15:03.953Z,51.50
2024-02-20T01:16:04.048Z,51.63
2024-02-20T01:17:03.984Z,51.98
2024-02-20T01:18:04.076Z,52.20
2024-02-20T01:19:04.048Z,50.63
2024-02-20T01:20:04.045Z,51.36
2024-02-20T01:21:04.038Z,51.18
2024-02-20T01:22:04.088Z,52.35
2024-02-20T01:23:04.041Z,51.04
2024-02-20T01:24:04.042Z,50.87
2024-02-20T01:25:04.162Z,51.63
2024-02-20T01:26:04.057Z,51.76
2024-02-20T01:27:04.065Z,51.47
2024-02-20T01:28:04.124Z,51.78
2024-02-20T01:29:04.078Z,53.36
2024-02-20T01:30:04.119Z,52.14
2024-02-20T01:31:04.138Z,51.37
2024-02-20T01:32:04.114Z,52.15
2024-02-20T01:33:04.218Z,51.94
2024-02-20T01:34:04.293Z,51.95
2024-02-20T01:35:04.312Z,51.14
2024-02-20T01:36:04.161Z,52.13
2024-02-20T01:37:04.210Z,52.76
2024-02-20T01:38:04.197Z,52.40
2024-02-20T01:39:04.246Z,53.40
2024-02-20T01:40:04.223Z,50.94
2024-02-20T01:41:04.212Z,51.97
2024-02-20T01:42:04.196Z,51.43
2024-02-20T01:43:04.273Z,52.27
2024-02-20T01:44:04.191Z,52.11
2024-02-20T01:45:04.220Z,51.91
2024-02-20T01:46:04.277Z,53.05
2024-02-20T01:47:04.808Z,50.97
2024-02-20T01:48:04.406Z,51.86
2024-02-20T01:49:04.435Z,51.20
2024-02-20T01:50:04.413Z,51.15
2024-02-20T01:51:04.234Z,51.71
2024-02-20T01:52:04.326Z,50.79
2024-02-20T01:53:04.253Z,51.17
2024-02-20T01:54:04.251Z,51.89
2024-02-20T01:55:04.285Z,50.90
2024-02-20T01:56:04.261Z,50.00
2024-02-20T01:57:04.285Z,51.51
2024-02-20T01:58:04.295Z,51.24
2024-02-20T01:59:04.286Z,51.68
2024-02-20T02:00:04.302Z,50.12
2024-02-20T02:01:04.419Z,51.46
2024-02-20T02:02:04.380Z,51.92
2024-02-20T02:03:04.326Z,52.75
2024-02-20T02:04:04.498Z,50.88
2024-02-20T02:05:04.482Z,52.13
2024-02-20T02:06:04.451Z,51.54
2024-02-20T02:07:04.482Z,50.98
2024-02-20T02:08:04.435Z,50.78
2024-02-20T02:09:04.407Z,51.20
2024-02-20T02:10:04.434Z,50.27
2024-02-20T02:11:04.440Z,51.07
2024-02-20T02:12:04.419Z,51.01
2024-02-20T02:13:04.468Z,51.27
2024-02-20T02:14:04.402Z,51.35
2024-02-20T02:15:04.439Z,50.74
2024-02-20T02:16:04.501Z,51.31
2024-02-20T02:17:04.446Z,52.11
2024-02-20T02:18:04.509Z,51.12
2024-02-20T02:19:04.764Z,50.54
2024-02-20T02:20:04.578Z,50.75
2024-02-20T02:21:04.478Z,52.25
2024-02-20T02:22:04.550Z,51.20
2024-02-20T02:23:04.489Z,52.37
2024-02-20T02:24:04.498Z,50.45
2024-02-20T02:25:04.736Z,52.38
2024-02-20T02:26:04.549Z,51.60
2024-02-20T02:27:04.559Z,51.19
2024-02-20T02:28:04.601Z,51.62
2024-02-20T02:29:04.603Z,50.38
2024-02-20T02:30:04.644Z,52.19
2024-02-20T02:31:04.736Z,50.86
2024-02-20T02:32:04.680Z,51.55
2024-02-20T02:33:04.792Z,52.55
2024-02-20T02:34:04.817Z,52.26
2024-02-20T02:35:04.814Z,52.82
2024-02-20T02:36:04.778Z,51.44
2024-02-20T02:37:04.832Z,51.06
2024-02-20T02:38:04.841Z,51.90
2024-02-20T02:39:04.864Z,51.52
2024-02-20T02:40:04.935Z,51.09
2024-02-20T02:41:04.891Z,51.99
2024-02-20T02:42:04.890Z,51.50
2024-02-20T02:43:04.935Z,51.29
2024-02-20T02:44:04.929Z,50.63
2024-02-20T02:45:04.979Z,51.02
2024-02-20T02:46:04.996Z,51.52
2024-02-20T02:47:05.005Z,50.88
2024-02-20T02:48:05.116Z,50.19
2024-02-20T02:49:05.134Z,51.31
2024-02-20T02:50:05.208Z,53.02
2024-02-20T02:51:05.093Z,51.39
2024-02-20T02:52:05.173Z,51.87
2024-02-20T02:53:05.098Z,52.84
2024-02-20T02:54:05.120Z,51.23
2024-02-20T02:55:05.169Z,50.98
2024-02-20T02:56:05.121Z,51.79
2024-02-20T02:57:05.156Z,51.01
2024-02-20T02:58:05.186Z,52.13
2024-02-20T02:59:05.182Z,52.16
2024-02-20T03:00:05.214Z,51.52
2024-02-20T03:01:05.233Z,52.56
2024-02-20T03:02:05.386Z,51.94
2024-02-20T03:03:05.243Z,52.74
2024-02-20T03:04:05.285Z,52.68
2024-02-20T03:05:05.373Z,52.41
2024-02-20T03:06:05.404Z,52.90
2024-02-20T03:07:05.457Z,52.90
2024-02-20T03:08:05.503Z,53.69
2024-02-20T03:09:05.570Z,53.18
2024-02-20T03:10:05.728Z,52.26
2024-02-20T03:11:05.748Z,52.42
2024-02-20T03:12:05.769Z,52.99
2024-02-20T03:13:05.856Z,52.69
2024-02-20T03:14:05.884Z,52.60
2024-02-20T03:15:06.505Z,51.82
2024-02-20T03:16:06.031Z,51.63
2024-02-20T03:17:06.059Z,52.90
2024-02-20T03:18:06.138Z,52.11
2024-02-20T03:19:06.271Z,52.12
2024-02-20T03:20:06.240Z,50.95
2024-02-20T03:21:06.243Z,51.58
2024-02-20T03:22:06.298Z,52.45
2024-02-20T03:23:06.321Z,51.44
2024-02-20T03:24:06.385Z,52.13
2024-02-20T03:25:06.500Z,50.98
2024-02-20T03:26:06.412Z,52.28
2024-02-20T03:27:06.453Z,51.20
2024-02-20T03:28:06.493Z,51.96
2024-02-20T03:29:06.501Z,52.08
2024-02-20T03:30:06.501Z,51.54
2024-02-20T03:31:06.573Z,51.98
2024-02-20T03:32:06.558Z,51.85
2024-02-20T03:33:06.686Z,51.58
2024-02-20T03:34:06.701Z,51.94
2024-02-20T03:35:06.707Z,51.95
2024-02-20T03:36:06.633Z,50.94
2024-02-20T03:37:06.716Z,52.42
2024-02-20T03:38:06.676Z,51.41
2024-02-20T03:39:06.703Z,51.13
2024-02-20T03:40:06.809Z,51.86
2024-02-20T03:41:06.742Z,52.37
2024-02-20T03:42:06.756Z,51.83
2024-02-20T03:43:06.802Z,52.62
2024-02-20T03:44:06.797Z,51.63
2024-02-20T03:45:06.816Z,52.35
2024-02-20T03:46:06.823Z,51.49
2024-02-20T03:47:06.853Z,51.02
2024-02-20T03:48:07.095Z,51.92
2024-02-20T03:49:07.074Z,51.59
2024-02-20T03:50:06.973Z,51.02
2024-02-20T03:51:06.911Z,52.79
2024-02-20T03:52:06.967Z,52.46
2024-02-20T03:53:08.218Z,53.75
2024-02-20T03:54:06.943Z,53.12
2024-02-20T03:55:06.975Z,53.45
2024-02-20T03:56:06.976Z,53.21
2024-02-20T03:57:06.962Z,53.74
2024-02-20T03:58:07.004Z,53.60
2024-02-20T03:59:06.976Z,53.29
2024-02-20T04:00:07.278Z,52.55
2024-02-20T04:01:07.035Z,54.44
2024-02-20T04:02:07.048Z,52.97
2024-02-20T04:03:07.038Z,52.65
2024-02-20T04:04:07.106Z,53.86
2024-02-20T04:05:07.013Z,52.78
2024-02-20T04:06:07.048Z,52.62
2024-02-20T04:07:07.066Z,52.58
2024-02-20T04:08:07.065Z,53.38
2024-02-20T04:09:07.044Z,54.24
2024-02-20T04:10:07.069Z,52.51
2024-02-20T04:11:07.067Z,52.08
2024-02-20T04:12:07.067Z,52.77
2024-02-20T04:13:07.116Z,51.37
2024-02-20T04:14:07.112Z,53.41
2024-02-20T04:15:07.150Z,51.95
2024-02-20T04:16:07.213Z,50.15
2024-02-20T04:17:07.108Z,54.53
2024-02-20T04:18:07.195Z,54.75
2024-02-20T04:19:07.240Z,54.40
2024-02-20T04:20:07.286Z,54.51
2024-02-20T04:21:07.138Z,52.83
2024-02-20T04:22:07.181Z,52.69
2024-02-20T04:23:07.169Z,54.08
2024-02-20T04:24:07.181Z,53.25
2024-02-20T04:25:07.199Z,51.66
2024-02-20T04:26:07.224Z,51.52
2024-02-20T04:27:07.198Z,52.65
2024-02-20T04:28:07.284Z,53.99
2024-02-20T04:29:07.263Z,53.06
2024-02-20T04:30:07.261Z,51.42
2024-02-20T04:31:07.298Z,53.60
2024-02-20T04:32:07.270Z,52.24
2024-02-20T04:33:07.388Z,54.12
2024-02-20T04:34:07.507Z,51.02
2024-02-20T04:35:14.826Z,50.00
2024-02-20T04:36:14.786Z,50.00
2024-02-20T04:37:14.809Z,50.00
2024-02-20T04:38:14.784Z,50.00
2024-02-20T04:39:14.787Z,50.00
2024-02-20T04:40:14.818Z,50.27
2024-02-20T04:41:14.824Z,53.83
2024-02-20T04:42:14.805Z,52.94
2024-02-20T04:43:14.924Z,51.70
2024-02-20T04:44:14.864Z,53.11
2024-02-20T04:45:14.907Z,51.57
2024-02-20T04:46:15.011Z,50.31
2024-02-20T04:47:15.018Z,51.75
2024-02-20T04:48:15.135Z,51.71
2024-02-20T04:49:15.191Z,54.94
2024-02-20T04:50:15.228Z,52.53
2024-02-20T04:51:15.174Z,54.89
2024-02-20T04:52:15.334Z,52.17
2024-02-20T04:53:15.241Z,54.49
2024-02-20T04:54:15.287Z,52.97
2024-02-20T04:55:15.331Z,54.29
2024-02-20T04:56:15.285Z,52.64
2024-02-20T04:57:15.285Z,52.28
2024-02-20T04:58:15.328Z,53.22
2024-02-20T04:59:15.309Z,50.96
2024-02-20T05:00:15.355Z,52.37
2024-02-20T05:01:15.547Z,52.94
2024-02-20T05:02:15.484Z,50.19
2024-02-20T05:03:15.421Z,52.39
2024-02-20T05:04:15.515Z,53.69
2024-02-20T05:05:15.436Z,54.08
2024-02-20T05:06:15.442Z,53.32
2024-02-20T05:07:15.706Z,51.77
2024-02-20T05:08:15.443Z,52.53
2024-02-20T05:09:15.446Z,52.80
2024-02-20T05:10:15.491Z,53.24
2024-02-20T05:11:15.456Z,52.24
2024-02-20T05:12:15.434Z,54.15
2024-02-20T05:13:15.517Z,50.83
2024-02-20T05:14:15.435Z,53.26
2024-02-20T05:15:15.453Z,52.08
2024-02-20T05:16:15.511Z,53.20
2024-02-20T05:17:15.431Z,54.11
2024-02-20T05:18:15.546Z,55.63
2024-02-20T05:19:15.525Z,51.77
2024-02-20T05:20:15.469Z,51.96
2024-02-20T05:21:15.464Z,53.41
2024-02-20T05:22:15.489Z,51.91
2024-02-20T05:23:15.466Z,54.04
2024-02-20T05:24:15.481Z,53.16
2024-02-20T05:25:15.515Z,51.39
2024-02-20T05:26:15.509Z,54.29
2024-02-20T05:27:15.494Z,53.68
2024-02-20T05:28:15.558Z,52.08
2024-02-20T05:29:15.510Z,52.95
2024-02-20T05:30:15.530Z,54.42
2024-02-20T05:31:15.525Z,51.65
2024-02-20T05:32:15.535Z,51.59
2024-02-20T05:33:15.617Z,50.00
2024-02-20T05:34:15.659Z,52.22
2024-02-20T05:35:15.649Z,54.28
2024-02-20T05:36:15.537Z,51.11
2024-02-20T05:37:15.575Z,51.53
2024-02-20T05:38:15.575Z,52.05
2024-02-20T05:39:15.556Z,50.97
2024-02-20T05:40:15.666Z,53.26
2024-02-20T05:41:15.572Z,54.09
2024-02-20T05:42:15.581Z,52.78
2024-02-20T05:43:15.600Z,52.66
2024-02-20T05:44:16.761Z,52.50
2024-02-20T05:45:15.590Z,50.00
2024-02-20T05:46:15.618Z,51.42
2024-02-20T05:47:15.600Z,54.93
2024-02-20T05:48:15.709Z,53.58
2024-02-20T05:49:15.817Z,52.03
2024-02-20T05:50:15.822Z,52.67
2024-02-20T05:51:15.631Z,52.91
2024-02-20T05:52:15.668Z,52.42
2024-02-20T05:53:15.640Z,53.23
2024-02-20T05:54:15.657Z,52.90
2024-02-20T05:55:15.722Z,52.09
2024-02-20T05:56:15.663Z,50.33
2024-02-20T05:57:15.666Z,53.12
2024-02-20T05:58:15.733Z,53.94
2024-02-20T05:59:15.678Z,54.33
2024-02-20T06:00:15.700Z,52.78
2024-02-20T06:01:15.727Z,52.51
2024-02-20T06:02:15.819Z,51.78
2024-02-20T06:03:15.710Z,52.23
2024-02-20T06:04:15.818Z,54.27
2024-02-20T06:05:15.958Z,54.03
2024-02-20T06:06:15.760Z,52.10
2024-02-20T06:07:15.782Z,53.70
2024-02-20T06:08:15.779Z,52.78
2024-02-20T06:09:15.793Z,50.36
2024-02-20T06:10:15.849Z,54.24
2024-02-20T06:11:15.878Z,53.70
2024-02-20T06:12:15.843Z,52.99
2024-02-20T06:13:15.907Z,52.10
2024-02-20T06:14:15.852Z,53.30
2024-02-20T06:15:15.861Z,52.77
2024-02-20T06:16:16.000Z,52.60
2024-02-20T06:17:15.910Z,53.07
2024-02-20T06:18:15.990Z,53.32
2024-02-20T06:19:16.061Z,53.06
2024-02-20T06:20:15.984Z,53.69
2024-02-20T06:21:15.968Z,54.35
2024-02-20T06:22:15.995Z,53.13
2024-02-20T06:23:15.979Z,54.30
2024-02-20T06:24:16.000Z,53.62
2024-02-20T06:25:16.028Z,54.64
2024-02-20T06:26:16.277Z,57.87
2024-02-20T06:27:16.077Z,58.31
2024-02-20T06:28:16.198Z,56.62
2024-02-20T06:29:16.131Z,55.02
2024-02-20T06:30:16.214Z,51.68
2024-02-20T06:31:16.331Z,50.00
2024-02-20T06:32:16.350Z,50.00
2024-02-20T06:33:16.473Z,50.65
2024-02-20T06:34:16.614Z,50.00
2024-02-20T06:35:16.395Z,50.43
2024-02-20T06:36:16.415Z,50.00
2024-02-20T06:37:16.461Z,50.00
2024-02-20T06:38:16.456Z,50.90
2024-02-20T06:39:16.491Z,50.07
2024-02-20T06:40:16.608Z,50.00
2024-02-20T06:41:16.552Z,50.00
2024-02-20T06:42:16.609Z,50.83
2024-02-20T06:43:16.720Z,50.87
2024-02-20T06:44:16.662Z,50.13
2024-02-20T06:45:16.705Z,51.14
2024-02-20T06:46:16.740Z,51.44
2024-02-20T06:47:16.746Z,50.00
2024-02-20T06:48:16.889Z,53.35
2024-02-20T06:49:16.898Z,55.33
2024-02-20T06:50:16.949Z,58.94
2024-02-20T06:51:16.850Z,59.29
2024-02-20T06:52:16.949Z,62.22
2024-02-20T06:53:16.973Z,64.86
2024-02-20T06:54:17.073Z,67.08
2024-02-20T06:55:17.128Z,68.92
2024-02-20T06:56:17.246Z,70.50
2024-02-20T06:57:17.274Z,71.70
2024-02-20T06:58:17.280Z,72.28
2024-02-20T06:59:17.299Z,73.08
2024-02-20T07:00:17.311Z,70.56
2024-02-20T07:01:17.479Z,67.60
2024-02-20T07:02:17.441Z,65.06
2024-02-20T07:03:17.406Z,60.28
2024-02-20T07:04:17.556Z,57.40
2024-02-20T07:05:17.731Z,55.55
2024-02-20T07:06:17.659Z,52.72
2024-02-20T07:07:17.585Z,52.42
2024-02-20T07:08:17.479Z,50.41
2024-02-20T07:09:17.501Z,50.00
2024-02-20T07:10:17.637Z,51.36
2024-02-20T07:11:17.602Z,51.12
2024-02-20T07:12:17.504Z,50.48
2024-02-20T07:13:17.541Z,53.61
2024-02-20T07:14:17.515Z,51.23
2024-02-20T07:15:17.509Z,50.00
2024-02-20T07:16:17.782Z,52.19
2024-02-20T07:17:17.534Z,52.89
2024-02-20T07:18:17.584Z,52.07
2024-02-20T07:19:17.719Z,52.80
2024-02-20T07:20:17.764Z,51.97
2024-02-20T07:21:17.562Z,52.86
2024-02-20T07:22:17.611Z,51.39
2024-02-20T07:23:17.597Z,51.98
2024-02-20T07:24:17.601Z,51.76
2024-02-20T07:25:17.627Z,50.35
2024-02-20T07:26:17.613Z,51.90
2024-02-20T07:27:17.606Z,50.58
2024-02-20T07:28:17.685Z,50.17
2024-02-20T07:29:17.634Z,52.43
2024-02-20T07:30:17.729Z,52.37
2024-02-20T07:31:17.731Z,53.06
2024-02-20T07:32:17.677Z,54.13
2024-02-20T07:33:27.756Z,53.33
2024-02-20T07:34:18.914Z,53.37
2024-02-20T07:35:17.867Z,51.85
2024-02-20T07:36:17.753Z,52.87
2024-02-20T07:37:17.796Z,51.74
2024-02-20T07:38:17.756Z,53.92
2024-02-20T07:39:17.697Z,55.91
2024-02-20T07:40:17.771Z,54.55
2024-02-20T07:41:17.699Z,52.22
2024-02-20T07:42:17.722Z,54.90
2024-02-20T07:43:17.741Z,52.94
2024-02-20T07:44:17.695Z,51.28
2024-02-20T07:45:17.691Z,54.74
2024-02-20T07:46:17.717Z,54.12
2024-02-20T07:47:17.722Z,54.08
2024-02-20T07:48:17.799Z,55.17
2024-02-20T07:49:17.924Z,53.79
2024-02-20T07:50:17.783Z,52.26
2024-02-20T07:51:17.937Z,52.52
2024-02-20T07:52:17.775Z,53.56
2024-02-20T07:53:17.762Z,52.44
2024-02-20T07:54:17.730Z,52.65
2024-02-20T07:55:17.809Z,51.94
2024-02-20T07:56:17.728Z,53.05
2024-02-20T07:57:17.770Z,53.40
2024-02-20T07:58:19.727Z,56.36
2024-02-20T07:59:17.763Z,55.54
2024-02-20T08:00:17.719Z,53.11
2024-02-20T08:01:20.582Z,54.56
2024-02-20T08:02:17.957Z,54.71
2024-02-20T08:03:17.741Z,55.45
2024-02-20T08:04:17.833Z,56.08
2024-02-20T08:05:17.916Z,58.88
2024-02-20T08:06:17.758Z,63.46
2024-02-20T08:07:17.863Z,64.41
2024-02-20T08:08:17.742Z,61.99
2024-02-20T08:09:17.750Z,65.06
2024-02-20T08:10:17.797Z,63.29
2024-02-20T08:11:17.820Z,62.95
2024-02-20T08:12:17.924Z,65.22
2024-02-20T08:13:17.777Z,64.83
2024-02-20T08:14:17.730Z,66.43
2024-02-20T08:15:17.747Z,67.29
2024-02-20T08:16:17.899Z,65.99
2024-02-20T08:17:17.852Z,67.87
2024-02-20T08:18:17.883Z,70.95
2024-02-20T08:19:17.968Z,71.40
2024-02-20T08:20:18.182Z,73.94
2024-02-20T08:21:18.025Z,75.71
2024-02-20T08:22:18.174Z,78.33
2024-02-20T08:23:18.118Z,78.65
2024-02-20T08:24:18.157Z,79.01
2024-02-20T08:25:18.236Z,78.39
2024-02-20T08:26:18.225Z,80.54
2024-02-20T08:27:18.288Z,79.78
2024-02-20T08:28:18.364Z,80.81
2024-02-20T08:29:18.350Z,80.76
2024-02-20T08:30:18.385Z,81.83
2024-02-20T08:31:18.450Z,81.53
2024-02-20T08:32:18.483Z,79.81
2024-02-20T08:33:18.541Z,79.64
2024-02-20T08:34:18.595Z,81.15
2024-02-20T08:35:18.709Z,81.68
2024-02-20T08:36:18.638Z,84.52
2024-02-20T08:37:18.723Z,85.91
2024-02-20T08:38:18.670Z,87.38
2024-02-20T08:39:18.661Z,88.08
2024-02-20T08:40:18.696Z,89.75
2024-02-20T08:41:18.741Z,90.21
2024-02-20T08:42:18.823Z,91.33
2024-02-20T08:43:18.932Z,92.36
2024-02-20T08:44:18.940Z,95.46
2024-02-20T08:45:19.008Z,95.04
2024-02-20T08:46:19.180Z,98.35
2024-02-20T08:47:19.118Z,98.02
2024-02-20T08:48:19.249Z,99.21
2024-02-20T08:49:19.282Z,98.11
2024-02-20T08:50:19.434Z,100.71
2024-02-20T08:51:19.347Z,102.44
2024-02-20T08:52:19.438Z,105.54
2024-02-20T08:53:19.471Z,107.94
2024-02-20T08:54:19.462Z,109.15
2024-02-20T08:55:19.615Z,113.33
2024-02-20T08:56:19.608Z,114.45
2024-02-20T08:57:19.629Z,116.15
2024-02-20T08:58:19.704Z,117.07
2024-02-20T08:59:19.713Z,119.08
2024-02-20T09:00:19.754Z,120.58
2024-02-20T09:01:19.879Z,120.70
2024-02-20T09:02:19.985Z,124.35
2024-02-20T09:03:20.505Z,124.09
2024-02-20T09:04:20.098Z,125.08
2024-02-20T09:05:20.051Z,126.07
2024-02-20T09:06:20.065Z,127.19
2024-02-20T09:07:27.375Z,50.00
2024-02-20T09:08:27.295Z,50.00
2024-02-20T09:09:27.277Z,50.00
2024-02-20T09:10:27.349Z,50.00
2024-02-20T09:11:27.374Z,50.00
2024-02-20T09:12:27.271Z,50.02
2024-02-20T09:13:27.333Z,51.69
2024-02-20T09:14:27.337Z,51.86
2024-02-20T09:15:27.291Z,51.34
2024-02-20T09:16:27.328Z,52.41
2024-02-20T09:17:27.342Z,53.41
2024-02-20T09:18:27.344Z,52.36
2024-02-20T09:19:27.330Z,53.18
2024-02-20T09:20:27.408Z,53.06
2024-02-20T09:21:27.331Z,53.46
2024-02-20T09:22:27.336Z,54.04
2024-02-20T09:23:27.349Z,54.13
2024-02-20T09:24:27.305Z,54.09
2024-02-20T09:25:27.414Z,54.83
2024-02-20T09:26:27.362Z,55.25
2024-02-20T09:27:27.419Z,54.31
2024-02-20T09:28:27.513Z,53.65
2024-02-20T09:29:27.478Z,53.77
2024-02-20T09:30:27.494Z,56.39
2024-02-20T09:31:27.600Z,56.07
2024-02-20T09:32:27.609Z,57.50
2024-02-20T09:33:27.785Z,57.14
2024-02-20T09:34:27.673Z,55.89
2024-02-20T09:35:27.662Z,58.90
2024-02-20T09:36:27.705Z,59.58
2024-02-20T09:37:27.733Z,55.50
2024-02-20T09:38:27.749Z,60.34
2024-02-20T09:39:27.763Z,60.20
2024-02-20T09:40:27.810Z,62.05
2024-02-20T09:41:27.820Z,61.05
2024-02-20T09:42:27.856Z,60.17
2024-02-20T09:43:27.897Z,61.30
2024-02-20T09:44:27.887Z,62.08
2024-02-20T09:45:27.958Z,59.02
2024-02-20T09:46:28.000Z,61.16
2024-02-20T09:47:28.012Z,61.11
2024-02-20T09:48:28.062Z,63.60
2024-02-20T09:49:28.167Z,61.14
2024-02-20T09:50:28.163Z,62.31
2024-02-20T09:51:28.270Z,60.48
2024-02-20T09:52:28.096Z,65.79
2024-02-20T09:53:28.207Z,64.15
2024-02-20T09:54:28.215Z,64.83
2024-02-20T09:55:28.516Z,64.54
2024-02-20T09:56:28.223Z,64.81
2024-02-20T09:57:28.214Z,65.91
2024-02-20T09:58:30.910Z,66.55
2024-02-20T09:59:29.170Z,66.68
2024-02-20T10:00:28.296Z,66.83
2024-02-20T10:01:28.352Z,67.21
2024-02-20T10:02:28.161Z,69.07
2024-02-20T10:03:28.211Z,71.28
2024-02-20T10:04:28.324Z,71.15
2024-02-20T10:05:28.354Z,72.63
2024-02-20T10:06:28.416Z,71.79
2024-02-20T10:07:28.200Z,72.52
2024-02-20T10:08:28.214Z,71.58
2024-02-20T10:09:28.190Z,73.16
2024-02-20T10:10:28.328Z,75.26
2024-02-20T10:11:28.270Z,74.87
2024-02-20T10:12:28.257Z,76.86
2024-02-20T10:13:28.310Z,75.01
2024-02-20T10:14:28.223Z,77.11
2024-02-20T10:15:28.254Z,76.92
2024-02-20T10:16:28.340Z,76.18
2024-02-20T10:17:28.322Z,77.66
2024-02-20T10:18:28.311Z,78.76
2024-02-20T10:19:28.466Z,78.59
2024-02-20T10:20:28.564Z,78.88
2024-02-20T10:21:28.397Z,77.89
2024-02-20T10:22:28.488Z,78.15
2024-02-20T10:23:28.509Z,78.95
2024-02-20T10:24:35.097Z,78.10
2024-02-20T10:25:29.562Z,78.16
2024-02-20T10:26:28.517Z,78.49
2024-02-20T10:27:28.540Z,78.16
2024-02-20T10:28:28.562Z,79.41
2024-02-20T10:29:28.539Z,79.62
2024-02-20T10:30:28.554Z,80.28
2024-02-20T10:31:28.560Z,80.70
2024-02-20T10:32:28.562Z,81.05
2024-02-20T10:33:30.586Z,81.09
2024-02-20T10:34:28.629Z,81.67
2024-02-20T10:35:28.696Z,80.80
2024-02-20T10:36:28.545Z,80.89
2024-02-20T10:37:28.655Z,81.30
2024-02-20T10:38:28.548Z,77.37
2024-02-20T10:39:28.529Z,81.60
2024-02-20T10:40:28.716Z,82.28
2024-02-20T10:41:28.600Z,82.66
2024-02-20T10:42:28.524Z,80.94
2024-02-20T10:43:28.552Z,81.43
2024-02-20T10:44:28.541Z,82.92
2024-02-20T10:45:28.882Z,81.55
2024-02-20T10:46:28.596Z,82.30
2024-02-20T10:47:28.570Z,80.92
2024-02-20T10:48:28.681Z,78.26
2024-02-20T10:49:31.628Z,78.64
2024-02-20T10:50:28.690Z,78.75
2024-02-20T10:51:28.536Z,79.13
2024-02-20T10:52:28.554Z,79.59
2024-02-20T10:53:28.530Z,81.15
2024-02-20T10:54:35.527Z,83.57
2024-02-20T10:55:33.054Z,78.86
2024-02-20T10:56:29.643Z,79.00
2024-02-20T10:57:28.586Z,80.24
2024-02-20T10:58:28.579Z,81.92
2024-02-20T10:59:28.535Z,83.96
2024-02-20T11:00:28.624Z,88.76
2024-02-20T11:01:28.658Z,88.09
2024-02-20T11:02:28.594Z,87.01
2024-02-20T11:03:32.982Z,86.30
2024-02-20T11:04:29.586Z,86.44
2024-02-20T11:05:28.647Z,86.76
2024-02-20T11:06:28.656Z,88.22
2024-02-20T11:07:28.640Z,87.58
2024-02-20T11:08:28.802Z,89.45
2024-02-20T11:09:28.568Z,89.51
2024-02-20T11:10:28.592Z,89.96
2024-02-20T11:11:28.586Z,88.44
2024-02-20T11:12:29.938Z,87.60
2024-02-20T11:13:28.962Z,87.36
2024-02-20T11:14:28.693Z,88.29
2024-02-20T11:15:28.727Z,87.94
2024-02-20T11:16:28.806Z,87.62
2024-02-20T11:17:29.877Z,88.87
2024-02-20T11:18:29.086Z,89.27
2024-02-20T11:19:29.067Z,88.28
2024-02-20T11:20:29.069Z,88.60
2024-02-20T11:21:29.062Z,88.46
2024-02-20T11:22:29.160Z,87.65
2024-02-20T11:23:29.188Z,88.82
2024-02-20T11:24:29.263Z,87.77
2024-02-20T11:25:29.420Z,89.16
2024-02-20T11:26:29.415Z,88.35
2024-02-20T11:27:29.455Z,91.81
2024-02-20T11:28:29.577Z,90.82
2024-02-20T11:29:29.610Z,90.18
2024-02-20T11:30:29.682Z,88.96
2024-02-20T11:31:29.831Z,90.12
2024-02-20T11:32:29.917Z,90.44
2024-02-20T11:33:30.131Z,87.99
2024-02-20T11:34:30.073Z,88.96
2024-02-20T11:35:30.081Z,88.13
2024-02-20T11:36:30.101Z,88.66
2024-02-20T11:37:35.428Z,89.83
2024-02-20T11:38:31.291Z,89.84
2024-02-20T11:39:30.185Z,90.10
2024-02-20T11:40:30.219Z,90.20
2024-02-20T11:41:30.206Z,90.81
2024-02-20T11:42:30.183Z,92.26
2024-02-20T11:43:30.219Z,89.17
2024-02-20T11:44:30.170Z,88.83
2024-02-20T11:45:30.218Z,91.09
2024-02-20T11:46:30.243Z,88.20
2024-02-20T11:47:30.241Z,89.72
2024-02-20T11:48:30.423Z,88.69
2024-02-20T11:49:30.387Z,87.58
2024-02-20T11:50:30.373Z,89.91
2024-02-20T11:51:30.421Z,90.21
2024-02-20T11:52:30.576Z,91.52
2024-02-20T11:53:30.697Z,91.03
2024-02-20T11:54:30.591Z,92.02
2024-02-20T11:55:30.714Z,92.78
2024-02-20T11:56:30.710Z,91.11
2024-02-20T11:57:30.736Z,89.13
2024-02-20T11:58:30.961Z,91.14
2024-02-20T11:59:30.839Z,92.46
2024-02-20T12:00:30.876Z,91.27
2024-02-20T12:01:30.955Z,89.63
2024-02-20T12:02:30.925Z,92.60
2024-02-20T12:03:30.958Z,92.91
2024-02-20T12:04:31.151Z,92.68
2024-02-20T12:05:31.151Z,92.78
2024-02-20T12:06:31.081Z,90.70
2024-02-20T12:07:31.304Z,90.91
2024-02-20T12:08:31.278Z,91.56
2024-02-20T12:09:31.212Z,94.62
2024-02-20T12:10:31.266Z,91.26
2024-02-20T12:11:31.401Z,91.42
2024-02-20T12:12:31.331Z,89.54
2024-02-20T12:13:31.451Z,92.86
2024-02-20T12:14:31.410Z,90.45
2024-02-20T12:15:31.454Z,92.62
2024-02-20T12:16:31.942Z,90.42
2024-02-20T12:17:31.574Z,91.10
2024-02-20T12:18:31.659Z,90.45
2024-02-20T12:19:31.746Z,90.21
2024-02-20T12:20:31.703Z,91.79
2024-02-20T12:21:31.700Z,90.66
2024-02-20T12:22:31.833Z,91.55
2024-02-20T12:23:31.779Z,87.89
2024-02-20T12:24:31.824Z,89.94
2024-02-20T12:25:31.924Z,90.33
2024-02-20T12:26:31.921Z,92.11
2024-02-20T12:27:31.951Z,92.36
2024-02-20T12:28:32.013Z,89.22
2024-02-20T12:29:32.024Z,91.28
2024-02-20T12:30:32.070Z,88.57
2024-02-20T12:31:32.319Z,89.60
2024-02-20T12:32:32.148Z,88.27
2024-02-20T12:33:32.247Z,88.41
2024-02-20T12:34:38.300Z,88.45
2024-02-20T12:35:35.329Z,88.55
2024-02-20T12:36:32.801Z,88.55
2024-02-20T12:37:32.302Z,88.89
2024-02-20T12:38:32.221Z,89.17
2024-02-20T12:39:32.230Z,88.23
2024-02-20T12:40:32.281Z,90.63
2024-02-20T12:41:32.466Z,90.73
2024-02-20T12:42:32.247Z,88.74
2024-02-20T12:43:32.247Z,88.01
2024-02-20T12:44:32.231Z,89.89
2024-02-20T12:45:32.231Z,89.60
2024-02-20T12:46:32.269Z,91.20
2024-02-20T12:47:32.280Z,90.06
2024-02-20T12:48:32.272Z,91.27
2024-02-20T12:49:32.314Z,89.68
2024-02-20T12:50:32.256Z,91.20
2024-02-20T12:51:32.243Z,90.89
2024-02-20T12:52:32.313Z,92.70